createdAt,value
2023-03-29T00:00:51.102Z,99671.38
2023-03-29T00:03:54.857Z,99673.97
2023-03-29T00:07:04.620Z,99672.22
2023-03-29T00:10:11.247Z,99673.09
2023-03-29T00:13:14.701Z,99670.53
2023-03-29T00:16:19.875Z,99668.78
2023-03-29T00:19:23.442Z,99664.44
2023-03-29T00:22:27.535Z,99671.38
2023-03-29T00:25:31.053Z,99673.09
2023-03-29T00:28:34.513Z,99668.75
2023-03-29T00:31:39.311Z,99671.38
2023-03-29T00:34:46.225Z,99674.81
2023-03-29T00:37:50.969Z,99670.50
2023-03-29T00:40:54.568Z,99668.75
2023-03-29T00:44:00.903Z,99660.13
2023-03-29T00:47:07.308Z,99668.78
2023-03-29T00:50:17.369Z,99671.38
2023-03-29T00:53:26.492Z,99659.28
2023-03-29T00:56:35.227Z,99657.53
2023-03-29T00:59:41.316Z,99653.22
2023-03-29T01:02:51.139Z,99657.53
2023-03-29T01:06:00.446Z,99648.00
2023-03-29T01:09:10.408Z,99652.34
2023-03-29T01:12:18.598Z,99648.00
2023-03-29T01:15:28.367Z,99645.44
2023-03-29T01:18:34.203Z,99646.28
2023-03-29T01:21:45.284Z,99648.91
2023-03-29T01:25:00.059Z,99643.66
2023-03-29T01:28:10.138Z,99636.78
2023-03-29T01:31:18.945Z,99631.59
2023-03-29T01:34:28.665Z,99622.91
2023-03-29T01:37:37.782Z,99626.41
2023-03-29T01:40:41.628Z,99628.97
2023-03-29T01:43:53.441Z,99629.00
2023-03-29T01:47:06.660Z,99619.47
2023-03-29T01:50:17.297Z,99629.84
2023-03-29T01:53:27.529Z,99626.38
2023-03-29T01:56:36.911Z,99630.69
2023-03-29T01:59:45.965Z,99625.50
2023-03-29T02:02:51.595Z,99624.63
2023-03-29T02:05:58.290Z,99623.78
2023-03-29T02:09:04.980Z,99617.69
2023-03-29T02:12:10.772Z,99626.38
2023-03-29T02:15:19.159Z,99625.53
2023-03-29T02:18:24.877Z,99618.59
2023-03-29T02:21:34.086Z,99619.47
2023-03-29T02:24:40.957Z,99624.66
2023-03-29T02:27:45.555Z,99630.69
2023-03-29T02:30:56.740Z,99628.13
2023-03-29T02:34:03.783Z,99622.06
2023-03-29T02:37:11.838Z,99615.13
2023-03-29T02:40:17.054Z,99613.38
2023-03-29T02:46:29.434Z,99610.81
2023-03-29T02:49:33.738Z,99616.00
2023-03-29T02:52:41.269Z,99609.97
2023-03-29T02:55:46.993Z,99614.28
2023-03-29T02:58:50.435Z,99609.09
2023-03-29T03:01:55.336Z,99606.50
2023-03-29T03:04:59.504Z,99598.72
2023-03-29T03:08:04.682Z,99603.03
2023-03-29T03:11:08.599Z,99608.22
2023-03-29T03:14:12.558Z,99603.88
2023-03-29T03:17:18.910Z,99604.75
2023-03-29T03:20:24.297Z,99604.75
2023-03-29T03:23:28.731Z,99607.31
2023-03-29T03:26:32.798Z,99609.03
2023-03-29T03:29:38.595Z,99603.81
2023-03-29T03:33:03.958Z,99601.22
2023-03-29T03:36:42.808Z,99596.91
2023-03-29T03:39:48.584Z,99596.91
2023-03-29T03:42:52.333Z,99595.25
2023-03-29T03:45:56.522Z,99583.13
2023-03-29T03:49:03.023Z,99584.03
2023-03-29T03:52:09.749Z,99584.00
2023-03-29T03:55:13.191Z,99593.47
2023-03-29T03:58:28.685Z,99588.31
2023-03-29T04:01:33.602Z,99586.59
2023-03-29T04:04:50.447Z,99591.78
2023-03-29T04:07:56.223Z,99585.72
2023-03-29T04:11:18.242Z,99583.13
2023-03-29T04:14:22.438Z,99583.13
2023-03-29T04:17:46.164Z,99589.16
2023-03-29T04:20:58.465Z,99579.69
2023-03-29T04:24:03.205Z,99585.75
2023-03-29T04:27:09.579Z,99580.56
2023-03-29T04:30:14.444Z,99583.13
2023-03-29T04:33:46.872Z,99591.75
2023-03-29T04:36:52.737Z,99579.69
2023-03-29T04:40:00.526Z,99585.75
2023-03-29T04:43:07.233Z,99590.91
2023-03-29T04:46:11.122Z,99579.69
2023-03-29T04:49:40.652Z,99578.81
2023-03-29T04:52:50.955Z,99571.91
2023-03-29T04:55:55.679Z,99573.66
2023-03-29T04:59:19.068Z,99566.72
2023-03-29T05:02:22.549Z,99564.13
2023-03-29T05:05:27.390Z,99577.06
2023-03-29T05:08:33.067Z,99568.44
2023-03-29T05:11:45.854Z,99574.41
2023-03-29T05:14:50.057Z,99577.84
2023-03-29T05:17:54.601Z,99572.66
2023-03-29T05:20:58.889Z,99573.56
2023-03-29T05:24:06.373Z,99571.88
2023-03-29T05:27:36.282Z,99579.66
2023-03-29T05:30:44.753Z,99583.09
2023-03-29T05:34:07.112Z,99574.41
2023-03-29T05:37:14.119Z,99574.41
2023-03-29T05:40:27.539Z,99563.91
2023-03-29T05:44:03.738Z,99572.50
2023-03-29T05:47:08.245Z,99577.66
2023-03-29T05:50:12.092Z,99573.19
2023-03-29T05:53:15.954Z,99574.06
2023-03-29T05:56:22.557Z,99573.13
2023-03-29T05:59:28.460Z,99569.44
2023-03-29T06:02:33.573Z,99565.88
2023-03-29T06:05:37.327Z,99571.84
2023-03-29T06:08:41.888Z,99573.44
2023-03-29T06:11:56.675Z,99569.94
2023-03-29T06:15:08.618Z,99569.00
2023-03-29T06:18:23.475Z,99571.44
2023-03-29T06:21:28.642Z,99567.84
2023-03-29T06:24:32.473Z,99566.78
2023-03-29T06:27:43.172Z,99567.47
2023-03-29T06:30:47.803Z,99565.59
2023-03-29T06:33:51.479Z,99566.00
2023-03-29T06:37:05.969Z,99562.66
2023-03-29T06:40:10.947Z,99564.25
2023-03-29T06:43:22.875Z,99563.81
2023-03-29T06:46:35.370Z,99564.47
2023-03-29T06:49:42.736Z,99561.59
2023-03-29T06:53:04.263Z,99561.31
2023-03-29T06:56:09.823Z,99562.66
2023-03-29T06:59:21.763Z,99570.28
2023-03-29T07:02:31.954Z,99561.44
2023-03-29T07:05:45.048Z,99563.81
2023-03-29T07:08:52.640Z,99558.06
2023-03-29T07:12:31.161Z,99555.44
2023-03-29T07:15:38.743Z,99561.63
2023-03-29T07:18:52.962Z,99560.81
2023-03-29T07:22:16.542Z,99565.84
2023-03-29T07:25:30.123Z,99563.47
2023-03-29T07:28:35.603Z,99560.72
2023-03-29T07:31:41.144Z,99555.50
2023-03-29T07:35:05.946Z,99555.97
2023-03-29T07:38:11.723Z,99555.44
2023-03-29T07:41:21.289Z,99555.38
2023-03-29T07:44:27.257Z,99551.75
2023-03-29T07:47:33.094Z,99550.28
2023-03-29T07:50:36.875Z,99554.00
2023-03-29T07:53:41.508Z,99555.78
2023-03-29T07:57:00.014Z,99543.75
2023-03-29T08:00:30.019Z,99549.00
2023-03-29T08:04:01.135Z,99543.97
2023-03-29T08:07:24.923Z,99536.34
2023-03-29T08:10:40.505Z,99540.66
2023-03-29T08:14:09.179Z,99544.63
2023-03-29T08:17:33.059Z,99545.47
2023-03-29T08:20:38.157Z,99537.09
2023-03-29T08:23:41.586Z,99533.91
2023-03-29T08:26:50.517Z,99534.34
2023-03-29T08:29:56.447Z,99539.81
2023-03-29T08:33:00.116Z,99535.22
2023-03-29T08:36:06.262Z,99536.25
2023-03-29T08:39:13.401Z,99535.03
2023-03-29T08:42:38.889Z,99534.03
2023-03-29T08:45:54.708Z,99526.81
2023-03-29T08:49:03.807Z,99528.94
2023-03-29T08:52:23.774Z,99531.50
2023-03-29T08:55:33.417Z,99520.00
2023-03-29T08:58:58.693Z,99518.94
2023-03-29T09:02:17.997Z,99514.94
2023-03-29T09:05:31.382Z,99508.84
2023-03-29T09:08:59.015Z,99508.06
2023-03-29T09:12:16.275Z,99501.25
2023-03-29T09:15:28.915Z,99500.09
2023-03-29T09:19:08.122Z,99503.59
2023-03-29T09:22:21.926Z,99493.03
2023-03-29T09:25:38.350Z,99491.56
2023-03-29T09:29:02.969Z,99484.28
2023-03-29T09:32:17.051Z,99485.22
2023-03-29T09:35:29.076Z,99492.63
2023-03-29T09:38:41.619Z,99492.53
2023-03-29T09:41:52.616Z,99485.00
2023-03-29T09:45:02.123Z,99484.22
2023-03-29T09:48:15.957Z,99490.53
2023-03-29T09:51:28.288Z,99481.88
2023-03-29T09:54:32.753Z,99491.75
2023-03-29T09:58:18.422Z,99475.97
2023-03-29T10:01:37.532Z,99482.63
2023-03-29T10:04:44.652Z,99475.25
2023-03-29T10:07:52.693Z,99480.91
2023-03-29T10:10:58.937Z,99469.41
2023-03-29T10:14:06.687Z,99464.56
2023-03-29T10:17:17.174Z,99464.41
2023-03-29T10:20:21.727Z,99472.22
2023-03-29T10:23:25.205Z,99469.84
2023-03-29T10:26:33.034Z,99469.22
2023-03-29T10:29:41.272Z,99463.06
2023-03-29T10:32:45.033Z,99463.53
2023-03-29T10:35:49.599Z,99466.09
2023-03-29T10:38:55.872Z,99450.84
2023-03-29T10:42:01.410Z,99451.06
2023-03-29T10:45:20.747Z,99445.09
2023-03-29T10:48:26.890Z,99447.09
2023-03-29T10:51:31.366Z,99437.91
2023-03-29T10:54:34.884Z,99434.88
2023-03-29T10:57:46.592Z,99425.81
2023-03-29T11:00:56.334Z,99425.31
2023-03-29T11:04:13.578Z,99419.03
2023-03-29T11:07:29.546Z,99421.94
2023-03-29T11:10:45.617Z,99415.41
2023-03-29T11:13:59.761Z,99407.97
2023-03-29T11:17:21.703Z,99405.81
2023-03-29T11:20:35.565Z,99399.66
2023-03-29T11:23:49.805Z,99387.06
2023-03-29T11:27:07.308Z,99388.22
2023-03-29T11:30:19.125Z,99383.78
2023-03-29T11:33:38.834Z,99392.81
2023-03-29T11:36:52.864Z,99384.22
2023-03-29T11:40:16.195Z,99379.97
2023-03-29T11:43:27.663Z,99380.31
2023-03-29T11:46:37.922Z,99377.03
2023-03-29T11:49:51.821Z,99359.28
2023-03-29T11:53:00.726Z,99370.16
2023-03-29T11:56:13.318Z,99356.72
2023-03-29T11:59:24.073Z,99349.53
2023-03-29T12:02:33.851Z,99345.38
2023-03-29T12:05:45.578Z,99344.94
2023-03-29T12:08:54.202Z,99344.31
2023-03-29T12:12:07.857Z,99338.63
2023-03-29T12:15:20.385Z,99334.09
2023-03-29T12:18:29.118Z,99332.81
2023-03-29T12:21:37.994Z,99329.94
2023-03-29T12:24:47.164Z,99331.59
2023-03-29T12:28:01.553Z,99326.28
2023-03-29T12:31:17.980Z,99314.59
2023-03-29T12:34:52.010Z,99318.28
2023-03-29T12:38:21.681Z,99311.13
2023-03-29T12:41:53.434Z,99310.56
2023-03-29T12:45:40.197Z,99303.53
2023-03-29T12:48:45.830Z,99294.28
2023-03-29T12:51:50.628Z,99299.66
2023-03-29T12:54:57.187Z,99307.66
2023-03-29T12:58:06.732Z,99293.16
2023-03-29T13:01:22.851Z,99283.28
2023-03-29T13:04:38.906Z,99282.94
2023-03-29T13:07:48.288Z,99277.38
2023-03-29T13:10:57.890Z,99279.28
2023-03-29T13:14:13.857Z,99281.97
2023-03-29T13:17:35.569Z,99275.25
2023-03-29T13:20:47.384Z,99266.94
2023-03-29T13:24:05.674Z,99255.88
2023-03-29T13:27:19.266Z,99264.00
2023-03-29T13:30:28.997Z,99247.72
2023-03-29T13:33:48.495Z,99251.75
2023-03-29T13:37:03.896Z,99242.22
2023-03-29T13:40:26.725Z,99244.81
2023-03-29T13:43:53.138Z,99239.22
2023-03-29T13:47:06.030Z,99237.22
2023-03-29T13:50:18.984Z,99231.91
2023-03-29T13:53:29.173Z,99226.72
2023-03-29T13:56:39.925Z,99219.59
2023-03-29T13:59:52.993Z,99220.69
2023-03-29T14:02:59.290Z,99224.63
2023-03-29T14:06:04.855Z,99224.28
2023-03-29T14:09:10.745Z,99224.59
2023-03-29T14:12:15.908Z,99219.59
2023-03-29T14:15:25.019Z,99212.47
2023-03-29T14:18:33.615Z,99206.00
2023-03-29T14:21:37.002Z,99208.16
2023-03-29T14:24:42.562Z,99201.75
2023-03-29T14:27:46.850Z,99205.53
2023-03-29T14:30:52.909Z,99205.66
2023-03-29T14:33:58.000Z,99202.47
2023-03-29T14:37:01.577Z,99196.94
2023-03-29T14:40:09.035Z,99197.97
2023-03-29T14:43:18.810Z,99191.19
2023-03-29T14:46:24.163Z,99190.09
2023-03-29T14:49:28.380Z,99194.41
2023-03-29T14:52:36.015Z,99192.97
2023-03-29T14:55:40.755Z,99193.91
2023-03-29T14:58:47.831Z,99182.03
2023-03-29T15:01:53.661Z,99177.75
2023-03-29T15:04:59.799Z,99179.28
2023-03-29T15:08:04.326Z,99175.50
2023-03-29T15:11:15.636Z,99174.75
2023-03-29T15:14:21.864Z,99178.31
2023-03-29T15:17:43.133Z,99163.88
2023-03-29T15:20:53.564Z,99163.53
2023-03-29T15:23:59.040Z,99170.19
2023-03-29T15:27:05.774Z,99169.88
2023-03-29T15:30:16.813Z,99158.78
2023-03-29T15:33:26.103Z,99153.72
2023-03-29T15:36:29.545Z,99144.34
2023-03-29T15:39:33.842Z,99152.41
2023-03-29T15:42:37.580Z,99145.19
2023-03-29T15:45:41.434Z,99136.66
2023-03-29T15:48:49.515Z,99141.66
2023-03-29T15:51:56.160Z,99145.50
2023-03-29T15:54:59.644Z,99138.03
2023-03-29T15:58:03.233Z,99136.44
2023-03-29T16:01:13.757Z,99134.75
2023-03-29T16:04:20.958Z,99131.22
2023-03-29T16:07:24.332Z,99128.88
2023-03-29T16:10:27.952Z,99122.88
2023-03-29T16:13:33.846Z,99106.88
2023-03-29T16:16:37.360Z,99119.19
2023-03-29T16:19:44.756Z,99125.81
2023-03-29T16:22:49.002Z,99124.84
2023-03-29T16:25:52.600Z,99117.09
2023-03-29T16:28:56.188Z,99115.34
2023-03-29T16:32:00.174Z,99123.59
2023-03-29T16:35:05.211Z,99121.00
2023-03-29T16:38:09.411Z,99112.91
2023-03-29T16:41:16.354Z,99110.88
2023-03-29T16:44:24.760Z,99116.72
2023-03-29T16:47:30.482Z,99115.41
2023-03-29T16:50:35.209Z,99107.97
2023-03-29T16:53:39.096Z,99113.47
2023-03-29T16:56:42.589Z,99108.50
2023-03-29T16:59:47.749Z,99112.94
2023-03-29T17:02:51.128Z,99116.28
2023-03-29T17:05:57.289Z,99111.91
2023-03-29T17:09:01.180Z,99113.81
2023-03-29T17:12:04.610Z,99113.84
2023-03-29T17:15:10.754Z,99126.44
2023-03-29T17:18:14.868Z,99121.84
2023-03-29T17:21:19.794Z,99129.16
2023-03-29T17:24:23.454Z,99132.22
2023-03-29T17:27:26.771Z,99130.53
2023-03-29T17:30:30.599Z,99131.19
2023-03-29T17:33:36.125Z,99118.50
2023-03-29T17:36:41.388Z,99115.91
2023-03-29T17:39:46.195Z,99124.81
2023-03-29T17:42:52.151Z,99114.81
2023-03-29T17:45:56.104Z,99106.31
2023-03-29T17:49:01.167Z,99109.81
2023-03-29T17:52:07.005Z,99110.16
2023-03-29T17:55:13.961Z,99112.56
2023-03-29T17:58:17.538Z,99115.44
2023-03-29T18:01:21.498Z,99122.69
2023-03-29T18:04:25.146Z,99132.38
2023-03-29T18:07:30.295Z,99129.44
2023-03-29T18:10:33.801Z,99126.50
2023-03-29T18:13:37.196Z,99128.72
2023-03-29T18:16:41.613Z,99123.50
2023-03-29T18:19:45.260Z,99123.75
2023-03-29T18:22:50.037Z,99124.94
2023-03-29T18:25:53.417Z,99117.59
2023-03-29T18:28:56.852Z,99125.75
2023-03-29T18:32:03.122Z,99151.19
2023-03-29T18:35:07.454Z,99153.59
2023-03-29T18:38:12.213Z,99155.34
2023-03-29T18:41:15.946Z,99156.59
2023-03-29T18:44:20.577Z,99160.13
2023-03-29T18:47:24.194Z,99150.88
2023-03-29T18:50:27.802Z,99151.41
2023-03-29T18:53:32.605Z,99145.34
2023-03-29T18:56:36.656Z,99145.72
2023-03-29T18:59:39.981Z,99145.34
2023-03-29T19:02:43.632Z,99142.56
2023-03-29T19:05:52.851Z,99147.66
2023-03-29T19:08:58.512Z,99131.72
2023-03-29T19:12:02.635Z,99125.38
2023-03-29T19:15:07.189Z,99135.75
2023-03-29T19:18:12.084Z,99134.50
2023-03-29T19:21:15.532Z,99138.84
2023-03-29T19:24:21.061Z,99147.06
2023-03-29T19:27:24.449Z,99136.69
2023-03-29T19:30:28.765Z,99120.41
2023-03-29T19:33:33.391Z,99119.97
2023-03-29T19:36:36.998Z,99119.56
2023-03-29T19:39:42.381Z,99119.03
2023-03-29T19:42:47.597Z,99114.28
2023-03-29T19:45:52.631Z,99118.41
2023-03-29T19:48:56.731Z,99121.97
2023-03-29T19:52:00.191Z,99119.09
2023-03-29T19:55:06.641Z,99123.25
2023-03-29T19:58:13.661Z,99126.31
2023-03-29T20:01:23.172Z,99119.09
2023-03-29T20:04:28.803Z,99127.16
2023-03-29T20:07:32.333Z,99111.00
2023-03-29T20:10:40.114Z,99119.72
2023-03-29T20:13:45.753Z,99109.41
2023-03-29T20:16:50.729Z,99116.44
2023-03-29T20:19:55.597Z,99110.78
2023-03-29T20:23:04.562Z,99105.34
2023-03-29T20:26:13.347Z,99100.69
2023-03-29T20:29:16.884Z,99091.88
2023-03-29T20:32:20.835Z,99089.41
2023-03-29T20:35:24.478Z,99087.00
2023-03-29T20:38:27.950Z,99089.03
2023-03-29T20:41:38.560Z,99083.03
2023-03-29T20:44:42.282Z,99074.63
2023-03-29T20:47:50.430Z,99077.59
2023-03-29T20:50:54.322Z,99071.06
2023-03-29T20:54:02.650Z,99075.81
2023-03-29T20:57:08.130Z,99085.09
2023-03-29T21:00:13.015Z,99074.72
2023-03-29T21:03:17.065Z,99068.78
2023-03-29T21:06:20.996Z,99072.63
2023-03-29T21:09:25.662Z,99074.69
2023-03-29T21:12:30.886Z,99071.53
2023-03-29T21:15:34.369Z,99072.97
2023-03-29T21:18:39.040Z,99065.06
2023-03-29T21:21:43.025Z,99066.31
2023-03-29T21:24:47.254Z,99066.78
2023-03-29T21:27:52.533Z,99063.97
2023-03-29T21:30:56.572Z,99054.88
2023-03-29T21:34:01.575Z,99054.00
2023-03-29T21:37:05.154Z,99059.28
2023-03-29T21:40:10.868Z,99061.84
2023-03-29T21:43:16.160Z,99061.16
2023-03-29T21:46:19.695Z,99054.13
2023-03-29T21:49:25.494Z,99054.41
2023-03-29T21:52:29.428Z,99053.28
2023-03-29T21:55:37.858Z,99045.16
2023-03-29T21:58:43.765Z,99042.72
2023-03-29T22:01:47.581Z,99044.72
2023-03-29T22:04:51.041Z,99043.06
2023-03-29T22:07:54.622Z,99054.25
2023-03-29T22:10:58.663Z,99040.66
2023-03-29T22:14:04.199Z,99039.09
2023-03-29T22:17:08.050Z,99031.63
2023-03-29T22:20:14.097Z,99022.16
2023-03-29T22:23:17.681Z,99017.38
2023-03-29T22:26:23.407Z,99020.72
2023-03-29T22:29:28.422Z,99020.94
2023-03-29T22:32:32.399Z,99023.28
2023-03-29T22:35:36.170Z,99022.63
2023-03-29T22:38:40.554Z,99018.66
2023-03-29T22:41:43.942Z,99015.03
2023-03-29T22:44:48.807Z,99016.09
2023-03-29T22:47:52.389Z,99008.41
2023-03-29T22:50:55.923Z,99008.34
2023-03-29T22:53:59.555Z,99009.63
2023-03-29T22:57:03.274Z,99015.47
2023-03-29T23:00:10.537Z,99013.75
2023-03-29T23:03:13.883Z,99014.44
2023-03-29T23:06:17.232Z,99004.00
2023-03-29T23:09:21.156Z,98999.91
2023-03-29T23:12:25.462Z,98994.31
2023-03-29T23:15:32.297Z,98994.25
2023-03-29T23:18:37.721Z,98994.72
2023-03-29T23:21:42.404Z,98998.66
2023-03-29T23:24:47.440Z,98997.59
2023-03-29T23:27:51.065Z,98995.25
2023-03-29T23:31:02.813Z,98990.97
2023-03-29T23:34:06.838Z,98986.53
2023-03-29T23:37:10.286Z,98986.97
2023-03-29T23:40:15.673Z,98983.84
2023-03-29T23:43:20.207Z,98986.13
2023-03-29T23:46:26.158Z,98983.69
2023-03-29T23:49:30.192Z,98981.84
2023-03-29T23:52:35.779Z,98972.78
2023-03-29T23:55:39.313Z,98979.69
2023-03-29T23:58:42.762Z,98972.72
